Roscoe, MO (64781)

3:52 PM CDT on July 26, 2014 (GMT -0500)
Between Arnica And Bugtussle (KMOHUMAN2) Elev 1010 ft | 37.75 °N, 93.67 °W | Change Station
Active Advisory: Heat Advisory

Current weather conditions updated 1 minute ago

Overcast
Overcast
97.0 °F
Feels Like 98 °F
N
2.0
Wind Variable Wind from North
Gusts 2.0 mph

Today is forecast to be nearly the same temperature as yesterday.

Today
High -- | Low -- °F
--% Chance of Precip.
Yesterday
High -- | Low -- °F
Precip. -- in
6:13 AM 8:29 PM
Waning Crescent, 0% visible
Pressure 29.86 in
Visibility 7.0 miles
Clouds Clear
Heat Index 98 °F
Dew Point 62 °F
Humidity 32%
Rainfall 0.00 in
Snow Depth Not available.
UV 9 out of 12
Pollen 6.80 out of 12
Air Quality Not available.
Flu Activity Not available.
METAR KGLY 262035Z AUTO 00000KT 7SM DZ CLR 31/26 A2986 RMK AO2

More Conditions Fewer Conditions

Pressure 29.86 in
Visibility 7.0 miles
Clouds Clear
Heat Index 98 °F
Dew Point 62 °F
Humidity 32%
Rainfall 0.00 in
Snow Depth Not available.
UV 9 out of 12
Pollen 6.80 out of 12
Air Quality Not available.
Flu Activity Not available.
METAR KGLY 262035Z AUTO 00000KT 7SM DZ CLR 31/26 A2986 RMK AO2

More Conditions Fewer Conditions

10-Day Weather Forecast

Almanac

Astronomy

Jul. 26, 2014 Rise Set
Actual Time 6:13 AM CDT 8:29 PM CDT
Civil Twilight 5:43 AM CDT 8:59 PM CDT
Nautical Twilight 5:07 AM CDT 9:35 PM CDT
Astronomical Twilight 4:27 AM CDT 10:15 PM CDT
Moon 6:05 AM CDT 8:06 PM CDT
Length of Visible Light 15h 15m
Length of Day
14h 16m
Tomorrow will be 1m 41s shorter.
Waning Crescent, 0% of the Moon is Illuminated
Today
Waning Crescent
Jul 26
New
Aug 3
First Quarter
Aug 10
Full
Aug 17
Last Quarter

Today's Extremes

State Highs State Lows

Community

WunderPhotos

Upload Photos

1,737,699 photos uploaded!

Nearby

Snow Depth

Station Depth Elevation
No new snow has been reported.

Earthquake Activity

City Distance Mag. Time & Date
No recent earthquake activity has been reported nearby.
Minimum magnitude displayed is 2.5.

Coastal Water Temperatures

Place Temperature
No Stations Reporting

Nearby Weather Stations

Station Location Temp. Heat Index Dew Point Humidity Wind Precip. Elev Updated Type
Between Arnica And Bugtussle, Humansville, MO 97.0 °F 98 °F 62 °F 32% North  at  2.0 mph 0.00 in / hr 1010 ft 3:51 PM CDT Normal
City Park, Stockton, MO 98.1 °F 104 °F 69 °F 39% SW  at  7.6 mph 0.00 in / hr 958 ft 3:51 PM CDT Rapid Fire
APRSWXNET Humansville MO, Dunnegan, MO 95 °F 100 °F 68 °F 42% SW  at  3 mph 0.00 in / hr 964 ft 3:01 PM CDT MADIS

Show More Stations Show Fewer Stations